Time;durP1;ratioP1;P1;durP2;ratioP2;P2;SDS_P1;SDS_P2;PMS_P1;PMS_P2;Temp;Humidity;BMP_temperature;BMP_pressure;BME280_temperature;BME280_humidity;BME280_pressure;Samples;Min_cycle;Max_cycle;Signal;HPM_P1;HPM_P2
2022/09/07 00:01:39;;;;;;;;;;;;;;;17.59;100.00;101364.59;4975111;28;20475;-75
2022/09/07 00:04:05;;;;;;;;;;;;;;;17.58;100.00;101365.53;4980435;28;20297;-74
2022/09/07 00:06:33;;;;;;;;;;;;;;;17.58;100.00;101360.19;4994196;28;19930;-74
2022/09/07 00:08:59;;;;;;;;;;;;;;;17.58;100.00;101371.75;4980050;28;19926;-74
2022/09/07 00:11:24;;;;;;;;;;;;;;;17.56;100.00;101378.19;4995004;28;20304;-73
2022/09/07 00:13:50;;;;;;;;;;;;;;;17.55;100.00;101371.09;4978690;28;20047;-74
2022/09/07 00:16:17;;;;;;;;;;;;;;;17.54;100.00;101377.44;4978428;28;19981;-75
2022/09/07 00:18:42;;;;;;;;;;;;;;;17.51;100.00;101368.66;4978644;28;19973;-75
2022/09/07 00:21:08;;;;;;;;;;;;;;;17.46;100.00;101351.16;4979341;28;20039;-74
2022/09/07 00:23:34;;;;;;;;;;;;;;;17.43;100.00;101344.19;4978432;28;20304;-74
2022/09/07 00:26:00;;;;;;;;;;;;;;;17.36;100.00;101333.06;4978772;28;19930;-74
2022/09/07 00:28:25;;;;;;;;;;;;;;;17.32;100.00;101325.34;4978514;28;19933;-75
2022/09/07 00:30:51;;;;;;;;;;;;;;;17.26;100.00;101329.25;4978798;28;20358;-75
2022/09/07 00:33:16;;;;;;;;;;;;;;;17.19;100.00;101328.81;4979333;28;19925;-74
2022/09/07 00:35:41;;;;;;;;;;;;;;;17.15;100.00;101324.63;4979349;28;20316;-74
2022/09/07 00:38:10;;;;;;;;;;;;;;;17.13;100.00;101323.00;4979307;28;20396;-73
2022/09/07 00:40:35;;;;;;;;;;;;;;;17.08;100.00;101342.03;4979160;28;19926;-73
2022/09/07 00:43:00;;;;;;;;;;;;;;;17.05;100.00;101343.09;4978885;28;20377;-74
2022/09/07 00:45:26;;;;;;;;;;;;;;;17.04;100.00;101349.41;4978751;28;20380;-74
2022/09/07 00:47:54;;;;;;;;;;;;;;;17.04;100.00;101345.84;4978520;28;19965;-74
2022/09/07 00:50:26;;;;;;;;;;;;;;;17.05;100.00;101358.28;5009970;28;20468;-74
2022/09/07 00:52:56;;;;;;;;;;;;;;;17.07;100.00;101345.66;5008509;28;20270;-73
2022/09/07 00:55:21;;;;;;;;;;;;;;;17.08;100.00;101331.34;4978044;28;19933;-74
2022/09/07 00:57:48;;;;;;;;;;;;;;;17.11;100.00;101320.44;5010591;28;19930;-74
2022/09/07 01:00:14;;;;;;;;;;;;;;;17.11;100.00;101317.78;4990710;28;19941;-73
2022/09/07 01:02:39;;;;;;;;;;;;;;;17.10;100.00;101311.56;4978150;28;20412;-75
2022/09/07 01:05:23;;;;;;;;;;;;;;;17.10;100.00;101321.38;4978600;28;20324;-75
2022/09/07 01:07:49;;;;;;;;;;;;;;;17.06;100.00;101328.75;5010508;28;19926;-73
2022/09/07 01:10:15;;;;;;;;;;;;;;;16.98;100.00;101333.72;4990988;28;19932;-74
2022/09/07 01:12:41;;;;;;;;;;;;;;;16.92;100.00;101332.31;4991524;28;20004;-74
2022/09/07 01:15:06;;;;;;;;;;;;;;;16.85;100.00;101331.00;4992462;28;20091;-74
2022/09/07 01:17:40;;;;;;;;;;;;;;;16.78;100.00;101335.00;5009063;28;19926;-74
2022/09/07 01:20:25;;;;;;;;;;;;;;;16.70;100.00;101322.13;4991245;28;19938;-74
2022/09/07 01:23:03;;;;;;;;;;;;;;;16.63;100.00;101320.81;4989423;28;19929;-74
2022/09/07 01:25:37;;;;;;;;;;;;;;;16.55;100.00;101323.94;5008749;28;20023;-74
2022/09/07 01:28:19;;;;;;;;;;;;;;;16.48;100.00;101336.00;4979224;28;19936;-75
2022/09/07 01:30:53;;;;;;;;;;;;;;;16.43;100.00;101338.97;4990798;28;19930;-75
2022/09/07 01:33:21;;;;;;;;;;;;;;;16.35;100.00;101355.44;4990221;28;20000;-75
2022/09/07 01:35:53;;;;;;;;;;;;;;;16.31;100.00;101363.75;5008524;28;20032;-75
2022/09/07 01:38:29;;;;;;;;;;;;;;;16.25;100.00;101365.84;4979887;28;19936;-75
2022/09/07 01:41:07;;;;;;;;;;;;;;;16.22;100.00;101383.88;4976828;28;19930;-72
2022/09/07 01:43:36;;;;;;;;;;;;;;;16.22;100.00;101413.25;4978655;28;20439;-72
2022/09/07 01:46:02;;;;;;;;;;;;;;;16.24;100.00;101404.19;4989060;28;19979;-73
2022/09/07 01:48:31;;;;;;;;;;;;;;;16.24;100.00;101382.00;4977813;28;20320;-74
2022/09/07 01:50:57;;;;;;;;;;;;;;;16.24;100.00;101347.25;5009069;28;19926;-75
2022/09/07 01:53:25;;;;;;;;;;;;;;;16.22;100.00;101343.81;5012293;28;19980;-75
2022/09/07 01:56:11;;;;;;;;;;;;;;;16.14;100.00;101342.47;4981934;28;19965;-75
2022/09/07 01:58:44;;;;;;;;;;;;;;;16.11;100.00;101320.44;4982125;28;19949;-75
2022/09/07 02:01:20;;;;;;;;;;;;;;;16.11;100.00;101304.41;4993538;28;19932;-74
2022/09/07 02:04:06;;;;;;;;;;;;;;;16.14;100.00;101289.06;5011781;28;19975;-75
2022/09/07 02:06:50;;;;;;;;;;;;;;;16.10;100.00;101282.19;4981936;28;20431;-76
2022/09/07 02:09:24;;;;;;;;;;;;;;;16.08;100.00;101270.72;4990321;28;19929;-75
2022/09/07 02:11:49;;;;;;;;;;;;;;;16.08;100.00;101257.38;5013884;28;19930;-74
2022/09/07 02:14:17;;;;;;;;;;;;;;;16.06;100.00;101248.63;4981784;28;20039;-75
2022/09/07 02:17:04;;;;;;;;;;;;;;;16.06;100.00;101239.75;4990887;28;20444;-75
2022/09/07 02:19:32;;;;;;;;;;;;;;;16.03;100.00;101240.81;4997075;28;20373;-75
2022/09/07 02:21:58;;;;;;;;;;;;;;;16.04;100.00;101238.97;4995009;28;19975;-75
2022/09/07 02:24:25;;;;;;;;;;;;;;;16.03;100.00;101232.78;5009348;28;20401;-75
2022/09/07 02:26:51;;;;;;;;;;;;;;;16.05;100.00;101224.66;5013179;28;19934;-75
2022/09/07 02:29:17;;;;;;;;;;;;;;;16.05;100.00;101222.00;4993947;28;19925;-75
2022/09/07 02:31:43;;;;;;;;;;;;;;;16.04;100.00;101221.16;4980681;28;19961;-75
2022/09/07 02:34:08;;;;;;;;;;;;;;;16.04;100.00;101218.50;4981640;28;19933;-76
2022/09/07 02:36:41;;;;;;;;;;;;;;;16.05;100.00;101220.19;4981292;28;19957;-76
2022/09/07 02:39:06;;;;;;;;;;;;;;;16.06;100.00;101216.56;5012510;28;19941;-76
2022/09/07 02:41:39;;;;;;;;;;;;;;;16.06;100.00;101219.25;4981074;28;20011;-75
2022/09/07 02:44:09;;;;;;;;;;;;;;;16.05;100.00;101209.50;4994780;28;20009;-76
2022/09/07 02:46:45;;;;;;;;;;;;;;;16.05;100.00;101192.63;5011024;28;20673;-75
2022/09/07 02:49:26;;;;;;;;;;;;;;;16.03;100.00;101179.38;4981172;28;19929;-75
2022/09/07 02:52:15;;;;;;;;;;;;;;;15.99;100.00;101183.19;4981784;28;20065;-75
2022/09/07 02:54:44;;;;;;;;;;;;;;;15.98;100.00;101185.03;4955203;28;20416;-75
2022/09/07 02:57:24;;;;;;;;;;;;;;;15.98;100.00;101178.81;5012646;28;19949;-76
2022/09/07 03:00:05;;;;;;;;;;;;;;;15.97;100.00;101177.94;4981149;28;19925;-75
2022/09/07 03:02:40;;;;;;;;;;;;;;;15.98;100.00;101178.81;5011124;28;21317;-75
2022/09/07 03:05:16;;;;;;;;;;;;;;;15.98;100.00;101181.50;4980493;28;19937;-75
2022/09/07 03:07:41;;;;;;;;;;;;;;;15.97;100.00;101193.13;4996617;28;20381;-75
2022/09/07 03:10:07;;;;;;;;;;;;;;;15.97;100.00;101177.94;4981290;28;19933;-75
2022/09/07 03:12:45;;;;;;;;;;;;;;;15.95;100.00;101168.34;5010825;28;19926;-75
2022/09/07 03:15:15;;;;;;;;;;;;;;;15.92;100.00;101160.50;5010665;28;20343;-75
2022/09/07 03:17:40;;;;;;;;;;;;;;;15.91;100.00;101158.78;4980719;28;20711;-76
2022/09/07 03:20:06;;;;;;;;;;;;;;;15.88;100.00;101154.47;4981734;28;19934;-76
2022/09/07 03:22:33;;;;;;;;;;;;;;;15.84;100.00;101158.28;4996093;28;20044;-76
2022/09/07 03:24:58;;;;;;;;;;;;;;;15.85;100.00;101170.69;4980111;28;19930;-76
2022/09/07 03:27:24;;;;;;;;;;;;;;;15.83;100.00;101169.91;4980150;28;20020;-76
2022/09/07 03:29:49;;;;;;;;;;;;;;;15.82;100.00;101171.75;4981139;28;20396;-75
2022/09/07 03:32:14;;;;;;;;;;;;;;;15.84;100.00;101172.50;4979635;28;19933;-76
2022/09/07 03:34:40;;;;;;;;;;;;;;;15.86;100.00;101167.91;4977328;28;19928;-75
2022/09/07 03:37:05;;;;;;;;;;;;;;;15.87;100.00;101161.63;4993480;28;19929;-76
2022/09/07 03:39:30;;;;;;;;;;;;;;;15.88;100.00;101146.47;4980179;28;19932;-75
2022/09/07 03:41:56;;;;;;;;;;;;;;;15.86;100.00;101148.38;4980125;28;19930;-76
2022/09/07 03:44:21;;;;;;;;;;;;;;;15.86;100.00;101151.06;4980717;28;20032;-76
2022/09/07 03:46:47;;;;;;;;;;;;;;;15.85;100.00;101150.19;4978060;28;19930;-76
2022/09/07 03:49:13;;;;;;;;;;;;;;;15.84;100.00;101151.16;4980681;28;20238;-75
2022/09/07 03:51:39;;;;;;;;;;;;;;;15.85;100.00;101141.34;5011040;28;19926;-76
2022/09/07 03:54:04;;;;;;;;;;;;;;;15.85;100.00;101144.00;4981200;28;19925;-75
2022/09/07 03:56:30;;;;;;;;;;;;;;;15.88;100.00;101136.66;4992217;28;19930;-75
2022/09/07 03:58:55;;;;;;;;;;;;;;;15.88;100.00;101146.47;4981122;28;19933;-76
2022/09/07 04:01:22;;;;;;;;;;;;;;;15.90;100.00;101136.53;4978252;28;19934;-76
2022/09/07 04:03:47;;;;;;;;;;;;;;;15.87;100.00;101137.59;5009306;28;20004;-76
2022/09/07 04:06:13;;;;;;;;;;;;;;;15.88;100.00;101136.66;4979235;28;20328;-76
2022/09/07 04:08:39;;;;;;;;;;;;;;;15.92;100.00;101133.81;4994479;28;19929;-76
2022/09/07 04:11:05;;;;;;;;;;;;;;;15.93;100.00;101143.53;4993245;28;20005;-76
2022/09/07 04:13:30;;;;;;;;;;;;;;;15.92;100.00;101141.81;4992353;28;20373;-77
2022/09/07 04:15:56;;;;;;;;;;;;;;;15.94;100.00;101148.78;5010573;28;19930;-76
2022/09/07 04:18:21;;;;;;;;;;;;;;;15.94;100.00;101147.91;4991320;28;19930;-76
2022/09/07 04:20:49;;;;;;;;;;;;;;;15.96;100.00;101154.03;4992741;28;19937;-76
2022/09/07 04:23:18;;;;;;;;;;;;;;;15.97;100.00;101153.06;4994201;28;19936;-76
2022/09/07 04:25:47;;;;;;;;;;;;;;;15.97;100.00;101151.25;5010929;28;20016;-76
2022/09/07 04:28:12;;;;;;;;;;;;;;;15.97;100.00;101140.56;5010798;28;20165;-76
2022/09/07 04:30:38;;;;;;;;;;;;;;;15.99;100.00;101145.81;4978770;28;20408;-76
2022/09/07 04:33:03;;;;;;;;;;;;;;;15.99;100.00;101138.69;5008578;28;19929;-76
2022/09/07 04:35:29;;;;;;;;;;;;;;;15.99;100.00;101135.13;4980157;28;20376;-76
2022/09/07 04:37:54;;;;;;;;;;;;;;;15.99;100.00;101135.13;4994328;28;19936;-75
2022/09/07 04:40:20;;;;;;;;;;;;;;;15.99;100.00;101136.00;4978930;28;20617;-76
2022/09/07 04:42:45;;;;;;;;;;;;;;;16.00;100.00;101136.84;4979555;28;21266;-76
2022/09/07 04:45:10;;;;;;;;;;;;;;;15.98;100.00;101136.97;5010298;28;19988;-76
2022/09/07 04:47:36;;;;;;;;;;;;;;;15.98;100.00;101139.63;4978763;28;19996;-76
2022/09/07 04:50:01;;;;;;;;;;;;;;;15.98;100.00;101138.75;4980145;28;20423;-76
2022/09/07 04:52:26;;;;;;;;;;;;;;;15.98;100.00;101144.09;4975841;28;19996;-76
2022/09/07 04:54:52;;;;;;;;;;;;;;;15.97;100.00;101147.75;4994093;28;20427;-76
2022/09/07 04:57:20;;;;;;;;;;;;;;;15.97;100.00;101153.06;4978070;28;20217;-76
2022/09/07 04:59:46;;;;;;;;;;;;;;;15.95;100.00;101155.00;4977481;28;20356;-76
2022/09/07 05:02:12;;;;;;;;;;;;;;;15.95;100.00;101147.00;4978433;28;20661;-76
2022/09/07 05:04:37;;;;;;;;;;;;;;;15.92;100.00;101153.38;4979204;28;19940;-76
2022/09/07 05:07:03;;;;;;;;;;;;;;;15.92;100.00;101149.84;4994846;28;19976;-76
2022/09/07 05:09:28;;;;;;;;;;;;;;;15.88;100.00;101150.00;4979648;28;19994;-76
2022/09/07 05:11:54;;;;;;;;;;;;;;;15.83;100.00;101146.75;4979470;28;20007;-76
2022/09/07 05:14:19;;;;;;;;;;;;;;;15.83;100.00;101145.91;4979047;28;19931;-76
2022/09/07 05:16:45;;;;;;;;;;;;;;;15.81;100.00;101140.69;4978233;28;20389;-76
2022/09/07 05:19:11;;;;;;;;;;;;;;;15.78;100.00;101143.53;4979798;28;20480;-76
2022/09/07 05:21:36;;;;;;;;;;;;;;;15.79;100.00;101145.22;4979039;28;20023;-76
2022/09/07 05:24:03;;;;;;;;;;;;;;;15.81;100.00;101150.47;4978313;28;20020;-76
2022/09/07 05:26:29;;;;;;;;;;;;;;;15.82;100.00;101145.06;4978511;28;19987;-77
2022/09/07 05:28:55;;;;;;;;;;;;;;;15.86;100.00;101154.56;5010226;28;19937;-76
2022/09/07 05:31:21;;;;;;;;;;;;;;;15.85;100.00;101160.88;4977530;28;21185;-76
2022/09/07 05:33:50;;;;;;;;;;;;;;;15.85;100.00;101170.69;4991607;28;20834;-76
2022/09/07 05:36:16;;;;;;;;;;;;;;;15.85;100.00;101166.19;5010039;28;20402;-77
2022/09/07 05:38:41;;;;;;;;;;;;;;;15.88;100.00;101165.16;4991137;28;19930;-77
2022/09/07 05:41:13;;;;;;;;;;;;;;;15.92;100.00;101171.19;4978572;28;19933;-76
2022/09/07 05:43:39;;;;;;;;;;;;;;;15.96;100.00;101180.72;4991973;28;19926;-76
2022/09/07 05:46:04;;;;;;;;;;;;;;;15.96;100.00;101180.72;4975057;28;19930;-76
2022/09/07 05:48:30;;;;;;;;;;;;;;;15.95;100.00;101192.38;4978617;28;20324;-76
2022/09/07 05:50:55;;;;;;;;;;;;;;;15.95;100.00;101187.03;4978447;28;20035;-76
2022/09/07 05:53:20;;;;;;;;;;;;;;;15.97;100.00;101185.13;5008137;28;20625;-76
2022/09/07 05:55:46;;;;;;;;;;;;;;;15.99;100.00;101189.41;4991534;28;19965;-76
2022/09/07 05:58:12;;;;;;;;;;;;;;;16.02;100.00;101193.69;5007212;28;19996;-76
2022/09/07 06:00:38;;;;;;;;;;;;;;;16.06;100.00;101192.53;5009383;28;19926;-76
2022/09/07 06:03:03;;;;;;;;;;;;;;;16.10;100.00;101193.19;4978404;28;19929;-76
2022/09/07 06:05:28;;;;;;;;;;;;;;;16.13;100.00;101187.69;4979012;28;19933;-76
2022/09/07 06:07:54;;;;;;;;;;;;;;;16.13;100.00;101199.19;4977368;28;19936;-77
2022/09/07 06:10:19;;;;;;;;;;;;;;;16.18;100.00;101198.06;4978128;28;20071;-77
2022/09/07 06:12:45;;;;;;;;;;;;;;;16.20;100.00;101199.69;4979812;28;20372;-76
2022/09/07 06:15:10;;;;;;;;;;;;;;;16.23;100.00;101203.97;4978889;28;20021;-76
2022/09/07 06:17:36;;;;;;;;;;;;;;;16.24;100.00;101192.34;4979127;28;19998;-76
2022/09/07 06:20:04;;;;;;;;;;;;;;;16.24;100.00;101195.00;4979210;28;20687;-76
2022/09/07 06:22:30;;;;;;;;;;;;;;;16.21;100.00;101197.84;4976776;28;19995;-76
2022/09/07 06:25:01;;;;;;;;;;;;;;;16.18;100.00;101203.41;4979114;28;19936;-76
2022/09/07 06:27:33;;;;;;;;;;;;;;;16.17;100.00;101205.22;5009792;28;20310;-76
2022/09/07 06:29:59;;;;;;;;;;;;;;;16.17;100.00;101199.88;4978670;28;19960;-76
2022/09/07 06:32:24;;;;;;;;;;;;;;;16.19;100.00;101202.44;4977094;28;19937;-76
2022/09/07 06:34:50;;;;;;;;;;;;;;;16.21;100.00;101211.22;5007058;28;19934;-77
2022/09/07 06:37:15;;;;;;;;;;;;;;;16.23;100.00;101206.66;4991596;28;19979;-76
2022/09/07 06:39:41;;;;;;;;;;;;;;;16.22;100.00;101202.22;4982210;28;19933;-76
2022/09/07 06:42:06;;;;;;;;;;;;;;;16.21;100.00;101208.53;5013803;28;19941;-76
2022/09/07 06:44:31;;;;;;;;;;;;;;;16.23;100.00;101209.31;4982365;28;20526;-76
2022/09/07 06:46:57;;;;;;;;;;;;;;;16.28;100.00;101215.19;4981698;28;19977;-76
2022/09/07 06:49:23;;;;;;;;;;;;;;;16.30;100.00;101210.63;4978256;28;19969;-77
2022/09/07 06:51:48;;;;;;;;;;;;;;;16.31;100.00;101215.03;4975991;28;20060;-76
2022/09/07 06:54:14;;;;;;;;;;;;;;;16.32;100.00;101211.38;5009913;28;19934;-88
2022/09/07 06:56:40;;;;;;;;;;;;;;;16.35;100.00;101221.03;5009939;28;19937;-89
2022/09/07 06:59:05;;;;;;;;;;;;;;;16.37;100.00;101217.31;5014272;28;20566;-89
2022/09/07 07:01:32;;;;;;;;;;;;;;;16.43;100.00;101211.56;5013924;28;20421;-89
2022/09/07 07:03:58;;;;;;;;;;;;;;;16.48;100.00;101215.75;4995834;28;19937;-87
2022/09/07 07:06:27;;;;;;;;;;;;;;;16.54;100.00;101213.53;4995730;28;19968;-86
2022/09/07 07:08:55;;;;;;;;;;;;;;;16.61;100.00;101205.97;4994037;28;19951;-88
2022/09/07 07:11:20;;;;;;;;;;;;;;;16.69;100.00;101202.81;5016181;28;19930;-86
2022/09/07 07:13:45;;;;;;;;;;;;;;;16.72;100.00;101207.09;4994954;28;20039;-87
2022/09/07 07:16:11;;;;;;;;;;;;;;;16.76;100.00;101213.94;4994404;28;19933;-86
2022/09/07 07:18:37;;;;;;;;;;;;;;;16.79;100.00;101214.59;4994905;28;19965;-88
2022/09/07 07:21:07;;;;;;;;;;;;;;;16.82;100.00;101214.41;4997246;28;19930;-87
2022/09/07 07:23:33;;;;;;;;;;;;;;;16.86;100.00;101225.75;4970937;28;19933;-87
2022/09/07 07:26:11;;;;;;;;;;;;;;;16.96;100.00;101216.13;4979286;28;19952;-85
2022/09/07 07:28:36;;;;;;;;;;;;;;;17.07;100.00;101211.94;5013688;28;19953;-84
2022/09/07 07:31:02;;;;;;;;;;;;;;;17.16;100.00;101211.31;4981980;28;19977;-86
2022/09/07 07:33:29;;;;;;;;;;;;;;;17.21;100.00;101213.69;4996911;28;20061;-86
2022/09/07 07:36:05;;;;;;;;;;;;;;;17.20;100.00;101223.53;5010199;28;19973;-86
2022/09/07 07:38:30;;;;;;;;;;;;;;;17.20;100.00;101222.66;4987578;28;20064;-84
2022/09/07 07:40:56;;;;;;;;;;;;;;;17.22;100.00;101221.59;4993085;28;20452;-88
2022/09/07 07:43:22;;;;;;;;;;;;;;;17.32;100.00;101215.63;4994208;28;19929;-86
2022/09/07 07:45:47;;;;;;;;;;;;;;;17.37;100.00;101219.69;5013145;28;19934;-86
2022/09/07 07:48:13;;;;;;;;;;;;;;;17.45;100.00;101223.66;4977631;28;19938;-86
2022/09/07 07:50:38;;;;;;;;;;;;;;;17.55;100.00;101213.19;5010645;28;19944;-86
2022/09/07 07:53:04;;;;;;;;;;;;;;;17.64;100.00;101220.56;4992542;28;20309;-84
2022/09/07 07:55:29;;;;;;;;;;;;;;;17.75;100.00;101223.34;4992903;28;20353;-75
2022/09/07 07:57:55;;;;;;;;;;;;;;;17.82;100.00;101222.94;5012432;28;20286;-77
2022/09/07 08:00:21;;;;;;;;;;;;;;;17.89;100.00;101229.56;4977521;28;19973;-76
2022/09/07 08:02:46;;;;;;;;;;;;;;;17.93;100.00;101239.09;5011390;28;20036;-75
2022/09/07 08:05:12;;;;;;;;;;;;;;;17.98;100.00;101247.66;4994032;28;20017;-76
2022/09/07 08:07:38;;;;;;;;;;;;;;;18.04;100.00;101246.38;4980525;28;20028;-76
2022/09/07 08:10:03;;;;;;;;;;;;;;;18.11;100.00;101253.03;4980593;28;20412;-76
2022/09/07 08:12:30;;;;;;;;;;;;;;;18.16;100.00;101252.72;4976743;28;19933;-76
2022/09/07 08:14:55;;;;;;;;;;;;;;;18.19;100.00;101249.81;4992917;28;19933;-76
2022/09/07 08:17:21;;;;;;;;;;;;;;;18.23;100.00;101255.78;4980391;28;19934;-76
2022/09/07 08:19:47;;;;;;;;;;;;;;;18.31;100.00;101254.28;5012538;28;19973;-76
2022/09/07 08:22:12;;;;;;;;;;;;;;;18.43;100.00;101255.22;4979458;28;19940;-76
2022/09/07 08:24:38;;;;;;;;;;;;;;;18.50;100.00;101250.28;4995211;28;19934;-77
2022/09/07 08:27:03;;;;;;;;;;;;;;;18.57;100.00;101256.03;4981011;28;19930;-76
2022/09/07 08:29:30;;;;;;;;;;;;;;;18.65;100.00;101258.16;4980303;28;19929;-77
2022/09/07 08:31:55;;;;;;;;;;;;;;;18.78;100.00;101256.28;5011253;28;19925;-75
2022/09/07 08:34:21;;;;;;;;;;;;;;;18.82;100.00;101259.59;4980923;28;19926;-76
2022/09/07 08:36:46;;;;;;;;;;;;;;;18.81;100.00;101258.75;5011963;28;19941;-75
2022/09/07 08:39:12;;;;;;;;;;;;;;;18.83;100.00;101258.63;5011519;28;19941;-75
2022/09/07 08:41:55;;;;;;;;;;;;;;;18.80;100.00;101254.34;5011331;28;19930;-75
2022/09/07 08:44:22;;;;;;;;;;;;;;;18.80;100.00;101257.03;4979805;28;20312;-76
2022/09/07 08:46:58;;;;;;;;;;;;;;;18.83;100.00;101256.81;5011213;28;19956;-75
2022/09/07 08:49:27;;;;;;;;;;;;;;;18.87;100.00;101260.97;4992946;28;20451;-76
2022/09/07 08:51:54;;;;;;;;;;;;;;;18.93;100.00;101258.78;4994958;28;19937;-75
2022/09/07 08:54:19;;;;;;;;;;;;;;;18.98;100.00;101264.69;4993025;28;19930;-75
2022/09/07 08:56:46;;;;;;;;;;;;;;;19.04;100.00;101266.94;4979958;28;19929;-75
2022/09/07 08:59:20;;;;;;;;;;;;;;;19.11;100.00;101270.88;5011250;28;19926;-75
2022/09/07 09:01:45;;;;;;;;;;;;;;;19.21;100.00;101267.47;5010955;28;19922;-76
2022/09/07 09:04:29;;;;;;;;;;;;;;;19.31;100.00;101265.81;5011193;28;19975;-75
2022/09/07 09:07:01;;;;;;;;;;;;;;;19.37;100.00;101276.09;5010651;28;20443;-75
2022/09/07 09:09:36;;;;;;;;;;;;;;;19.37;100.00;101269.88;5011031;28;19936;-75
2022/09/07 09:12:12;;;;;;;;;;;;;;;19.29;100.00;101272.28;5008887;28;19932;-75
2022/09/07 09:14:40;;;;;;;;;;;;;;;19.25;100.00;101275.22;4979258;28;20028;-75
2022/09/07 09:17:15;;;;;;;;;;;;;;;19.24;100.00;101269.94;4991946;28;20498;-76
2022/09/07 09:19:40;;;;;;;;;;;;;;;19.26;100.00;101271.56;4980101;28;19940;-76
2022/09/07 09:22:13;;;;;;;;;;;;;;;19.35;100.00;101272.66;4979139;28;20002;-75
2022/09/07 09:24:46;;;;;;;;;;;;;;;19.47;100.00;101272.69;4992276;28;19925;-75
2022/09/07 09:27:11;;;;;;;;;;;;;;;19.61;100.00;101266.28;5010616;28;19929;-75
2022/09/07 09:29:37;;;;;;;;;;;;;;;19.71;100.00;101266.44;4979089;28;19934;-75
2022/09/07 09:32:21;;;;;;;;;;;;;;;19.78;100.00;101268.50;4991986;28;20060;-76
2022/09/07 09:34:59;;;;;;;;;;;;;;;19.89;100.00;101273.03;4972608;28;19929;-75
2022/09/07 09:37:32;;;;;;;;;;;;;;;19.93;100.00;101266.44;5011045;28;20533;-75
2022/09/07 09:39:58;;;;;;;;;;;;;;;19.93;100.00;101266.44;4979332;28;19936;-75
2022/09/07 09:42:23;;;;;;;;;;;;;;;19.99;100.00;101253.53;4979428;28;20571;-76
2022/09/07 09:44:48;;;;;;;;;;;;;;;20.05;100.00;101253.06;4991452;28;20427;-76
2022/09/07 09:47:34;;;;;;;;;;;;;;;20.11;100.00;101257.94;4978822;28;19934;-76
2022/09/07 09:50:02;;;;;;;;;;;;;;;20.19;100.00;101258.19;4991585;28;19925;-75
2022/09/07 09:52:27;;;;;;;;;;;;;;;20.23;100.00;101253.41;4983382;28;19988;-76
2022/09/07 09:54:55;;;;;;;;;;;;;;;20.22;100.00;101252.53;4994729;28;19926;-76
2022/09/07 09:57:39;;;;;;;;;;;;;;;20.23;100.00;101248.03;4980209;28;20032;-76
2022/09/07 10:00:05;;;;;;;;;;;;;;;20.22;100.00;101246.34;4979321;28;19926;-76
2022/09/07 10:02:32;;;;;;;;;;;;;;;20.22;99.58;101244.47;4979143;28;20049;-75
2022/09/07 10:04:57;;;;;;;;;;;;;;;20.24;99.13;101240.81;4991801;28;20309;-75
2022/09/07 10:07:26;;;;;;;;;;;;;;;20.20;99.37;101241.06;4992107;28;19936;-75
2022/09/07 10:09:52;;;;;;;;;;;;;;;20.24;100.00;101243.50;5010956;28;19957;-75
2022/09/07 10:12:34;;;;;;;;;;;;;;;20.28;98.66;101237.78;4992343;28;19937;-75
2022/09/07 10:15:00;;;;;;;;;;;;;;;20.31;96.60;101248.25;5014383;28;19929;-75
2022/09/07 10:17:33;;;;;;;;;;;;;;;20.30;97.46;101251.06;4995904;28;20018;-76
2022/09/07 10:20:20;;;;;;;;;;;;;;;20.30;97.14;101245.69;4983387;28;19930;-76
2022/09/07 10:22:56;;;;;;;;;;;;;;;20.30;97.14;101243.88;4983762;28;19929;-76
2022/09/07 10:25:26;;;;;;;;;;;;;;;20.37;98.59;101244.22;4983286;28;20012;-76
2022/09/07 10:28:08;;;;;;;;;;;;;;;20.45;98.20;101255.22;4983170;28;19932;-75
2022/09/07 10:30:43;;;;;;;;;;;;;;;20.58;97.51;101248.81;5013934;28;19929;-76
2022/09/07 10:33:18;;;;;;;;;;;;;;;20.65;97.28;101250.06;5013719;28;19973;-76
2022/09/07 10:36:04;;;;;;;;;;;;;;;20.73;96.04;101249.41;5012719;28;19929;-76
2022/09/07 10:38:30;;;;;;;;;;;;;;;20.80;95.11;101252.47;4978535;28;20063;-78
2022/09/07 10:40:59;;;;;;;;;;;;;;;20.84;94.84;101256.63;5009679;28;20210;-78
2022/09/07 10:43:24;;;;;;;;;;;;;;;20.95;95.87;101251.22;4982097;28;20509;-79
2022/09/07 10:46:08;;;;;;;;;;;;;;;21.04;93.93;101260.34;5014044;28;19936;-79
2022/09/07 10:48:34;;;;;;;;;;;;;;;21.12;95.17;101262.38;4980728;28;19934;-80
2022/09/07 10:51:02;;;;;;;;;;;;;;;21.19;93.97;101257.34;5012768;28;19925;-78
2022/09/07 10:53:31;;;;;;;;;;;;;;;21.20;91.69;101256.38;4982439;28;20326;-78
2022/09/07 10:56:04;;;;;;;;;;;;;;;21.17;91.74;101266.41;5014607;28;19926;-77
2022/09/07 10:58:30;;;;;;;;;;;;;;;21.15;91.07;101259.44;4982998;28;19976;-77
2022/09/07 11:00:55;;;;;;;;;;;;;;;21.11;91.42;101263.38;5010518;28;20028;-83
2022/09/07 11:03:33;;;;;;;;;;;;;;;21.10;91.19;101254.47;4981282;28;19933;-72
2022/09/07 11:06:15;;;;;;;;;;;;;;;21.10;90.37;101262.53;4993396;28;20641;-73
2022/09/07 11:08:40;;;;;;;;;;;;;;;21.07;91.52;101267.31;5013064;28;19933;-73
2022/09/07 11:11:15;;;;;;;;;;;;;;;21.02;90.34;101262.28;4980893;28;19929;-80
2022/09/07 11:13:41;;;;;;;;;;;;;;;20.93;90.27;101263.94;4982163;28;19926;-82
2022/09/07 11:16:08;;;;;;;;;;;;;;;20.89;91.36;101267.84;4994927;28;19932;-84
2022/09/07 11:18:36;;;;;;;;;;;;;;;20.88;91.94;101258.91;5014264;28;20496;-82
2022/09/07 11:21:02;;;;;;;;;;;;;;;20.91;91.34;101263.19;4981764;28;19929;-83
2022/09/07 11:23:27;;;;;;;;;;;;;;;20.90;91.69;101264.19;4994089;28;19961;-80
2022/09/07 11:25:56;;;;;;;;;;;;;;;20.95;91.74;101256.59;5012410;28;20356;-81
2022/09/07 11:28:23;;;;;;;;;;;;;;;21.03;92.38;101259.47;5013004;28;19936;-82
2022/09/07 11:30:49;;;;;;;;;;;;;;;21.11;91.31;101266.06;4981207;28;20013;-81
2022/09/07 11:33:19;;;;;;;;;;;;;;;21.10;90.73;101261.66;4993128;28;20320;-82
2022/09/07 11:35:46;;;;;;;;;;;;;;;21.07;90.48;101264.63;4981925;28;19933;-81
2022/09/07 11:38:17;;;;;;;;;;;;;;;21.02;90.99;101259.59;5010238;28;19984;-81
2022/09/07 11:40:54;;;;;;;;;;;;;;;21.00;90.53;101259.75;5013082;28;20604;-81
2022/09/07 11:43:20;;;;;;;;;;;;;;;21.02;90.08;101262.28;4994277;28;19926;-81
2022/09/07 11:46:15;;;;;;;;;;;;;;;20.99;88.70;101262.56;4993951;28;20159;-81
2022/09/07 11:48:51;;;;;;;;;;;;;;;20.97;89.22;101251.91;5008224;28;19930;-83
2022/09/07 11:51:28;;;;;;;;;;;;;;;21.00;88.75;101249.00;4994328;28;19942;-80
2022/09/07 11:53:55;;;;;;;;;;;;;;;20.99;89.21;101252.66;4994739;28;19929;-80
2022/09/07 11:56:25;;;;;;;;;;;;;;;20.99;89.53;101243.72;4994879;28;19926;-83
2022/09/07 11:58:57;;;;;;;;;;;;;;;20.97;90.37;101238.47;4981290;28;19965;-80
2022/09/07 12:01:23;;;;;;;;;;;;;;;21.02;88.79;101244.31;5011418;28;19934;-72
2022/09/07 12:04:01;;;;;;;;;;;;;;;21.05;89.01;101250.41;4979765;28;20361;-73
2022/09/07 12:06:26;;;;;;;;;;;;;;;21.14;89.36;101238.91;4980887;28;19929;-72
2022/09/07 12:08:54;;;;;;;;;;;;;;;21.20;88.99;101249.16;5012055;28;19926;-73
2022/09/07 12:11:20;;;;;;;;;;;;;;;21.25;89.13;101248.75;4981192;28;19972;-73
2022/09/07 12:13:52;;;;;;;;;;;;;;;21.32;88.55;101241.88;4981216;28;20051;-73
2022/09/07 12:16:23;;;;;;;;;;;;;;;21.35;88.37;101243.44;4979417;28;19925;-73
2022/09/07 12:18:54;;;;;;;;;;;;;;;21.37;88.89;101246.84;4981326;28;19934;-73
2022/09/07 12:21:28;;;;;;;;;;;;;;;21.37;86.80;101244.16;5011608;28;20396;-72
2022/09/07 12:23:54;;;;;;;;;;;;;;;21.41;88.00;101251.00;4980602;28;19936;-72
2022/09/07 12:26:31;;;;;;;;;;;;;;;21.44;86.87;101250.72;4980009;28;19930;-72
2022/09/07 12:28:56;;;;;;;;;;;;;;;21.51;88.07;101245.69;4980570;28;19929;-72
2022/09/07 12:31:39;;;;;;;;;;;;;;;21.64;86.35;101248.16;5010794;28;20317;-72
2022/09/07 12:34:34;;;;;;;;;;;;;;;21.75;86.12;101242.72;4980737;28;19926;-73
2022/09/07 12:37:22;;;;;;;;;;;;;;;21.86;86.15;101244.50;4973613;28;19976;-72